Time;durP1;ratioP1;P1;durP2;ratioP2;P2;SDS_P1;SDS_P2;PMS_P1;PMS_P2;Temp;Humidity;BMP_temperature;BMP_pressure;BME280_temperature;BME280_humidity;BME280_pressure;Samples;Min_cycle;Max_cycle;Signal;HPM_P1;HPM_P2
2024/01/27 00:01:50;;;;;;;0.00;0.00;;;28.30;35.20;;;;;;5014636;28;20201;-48
2024/01/27 00:04:21;;;;;;;0.00;0.00;;;28.40;35.20;;;;;;5014725;28;20196;-47
2024/01/27 00:06:53;;;;;;;0.00;0.00;;;28.40;35.30;;;;;;5013834;28;20232;-49
2024/01/27 00:09:24;;;;;;;0.00;0.00;;;28.40;35.20;;;;;;5014685;28;20200;-47
2024/01/27 00:11:55;;;;;;;0.00;0.00;;;28.40;35.30;;;;;;5014644;28;20197;-49
2024/01/27 00:14:25;;;;;;;0.00;0.00;;;28.50;35.30;;;;;;5014725;28;20207;-47
2024/01/27 00:16:56;;;;;;;0.00;0.00;;;28.50;35.30;;;;;;5014592;28;20224;-47
2024/01/27 00:19:27;;;;;;;0.00;0.00;;;28.50;35.30;;;;;;5029621;28;20210;-47
2024/01/27 00:22:00;;;;;;;0.00;0.00;;;28.50;35.30;;;;;;5033966;28;20200;-46
2024/01/27 00:24:30;;;;;;;0.00;0.00;;;28.50;35.20;;;;;;5034238;28;20254;-47
2024/01/27 00:27:03;;;;;;;0.00;0.00;;;28.50;35.20;;;;;;5034220;28;20239;-48
2024/01/27 00:29:34;;;;;;;0.00;0.00;;;28.60;35.20;;;;;;5034075;28;20246;-49
2024/01/27 00:32:05;;;;;;;0.00;0.00;;;28.60;35.20;;;;;;5034045;28;20200;-49
2024/01/27 00:34:35;;;;;;;0.00;0.00;;;28.60;35.10;;;;;;5024975;28;20196;-50
2024/01/27 00:37:08;;;;;;;0.00;0.00;;;28.70;35.20;;;;;;5014302;28;20684;-49
2024/01/27 00:39:39;;;;;;;0.00;0.00;;;28.70;35.00;;;;;;5014440;28;20216;-51
2024/01/27 00:42:09;;;;;;;0.00;0.00;;;28.70;34.90;;;;;;5014377;28;20204;-49
2024/01/27 00:44:40;;;;;;;0.00;0.00;;;28.70;34.90;;;;;;5014140;28;20211;-47
2024/01/27 00:47:11;;;;;;;0.00;0.00;;;28.70;35.00;;;;;;5014100;28;20584;-50
2024/01/27 00:49:41;;;;;;;0.00;0.00;;;28.80;34.90;;;;;;5031780;28;20195;-48
2024/01/27 00:52:14;;;;;;;0.00;0.00;;;28.80;34.80;;;;;;5033693;28;20205;-47
2024/01/27 00:54:45;;;;;;;0.00;0.00;;;28.80;34.70;;;;;;5033402;28;20226;-47
2024/01/27 00:57:16;;;;;;;0.00;0.00;;;28.90;34.60;;;;;;5033538;28;20196;-50
2024/01/27 00:59:46;;;;;;;0.00;0.00;;;28.90;34.60;;;;;;5034209;28;20215;-49
2024/01/27 01:02:17;;;;;;;0.00;0.00;;;28.90;34.60;;;;;;5033400;28;20207;-46
2024/01/27 01:04:48;;;;;;;0.00;0.00;;;28.90;34.50;;;;;;5032747;28;20196;-46
2024/01/27 01:07:20;;;;;;;0.00;0.00;;;29.00;34.40;;;;;;5032899;28;20710;-49
2024/01/27 01:09:51;;;;;;;0.00;0.00;;;29.00;34.20;;;;;;5033367;28;20203;-50
2024/01/27 01:12:21;;;;;;;0.00;0.00;;;29.00;34.20;;;;;;5033097;28;20203;-49
2024/01/27 01:14:52;;;;;;;0.00;0.00;;;29.00;34.00;;;;;;5033231;28;20489;-50
2024/01/27 01:17:23;;;;;;;0.00;0.00;;;29.00;34.10;;;;;;5016034;28;20200;-50
2024/01/27 01:19:53;;;;;;;0.00;0.00;;;29.00;33.90;;;;;;5032338;28;20204;-48
2024/01/27 01:22:26;;;;;;;0.00;0.00;;;29.10;33.80;;;;;;5032745;28;20192;-51
2024/01/27 01:24:57;;;;;;;0.00;0.00;;;29.10;33.90;;;;;;5032864;28;20200;-46
2024/01/27 01:27:27;;;;;;;0.00;0.00;;;29.10;33.90;;;;;;5032621;28;20235;-47
2024/01/27 01:29:58;;;;;;;0.00;0.00;;;29.20;33.90;;;;;;5032721;28;20203;-49
2024/01/27 01:32:29;;;;;;;0.00;0.00;;;29.20;33.80;;;;;;5032996;28;20196;-49
2024/01/27 01:34:59;;;;;;;0.00;0.00;;;29.20;33.70;;;;;;5032694;28;20196;-47
2024/01/27 01:37:32;;;;;;;0.00;0.00;;;29.20;33.60;;;;;;5032768;28;20192;-49
2024/01/27 01:40:01;;;;;;;0.00;0.00;;;29.30;33.60;;;;;;5032475;28;20204;-48
2024/01/27 01:42:33;;;;;;;0.00;0.00;;;29.30;33.90;;;;;;5032465;28;20282;-50
2024/01/27 01:45:03;;;;;;;0.00;0.00;;;29.30;34.00;;;;;;5032283;28;20200;-45
2024/01/27 01:47:35;;;;;;;0.00;0.00;;;29.30;34.00;;;;;;5032479;28;20230;-49
2024/01/27 01:50:05;;;;;;;0.00;0.00;;;29.30;34.00;;;;;;5032599;28;20652;-47
2024/01/27 01:52:38;;;;;;;0.00;0.00;;;29.40;33.80;;;;;;5032781;28;20219;-47
2024/01/27 01:55:09;;;;;;;0.00;0.00;;;29.40;33.90;;;;;;5014480;28;20715;-46
2024/01/27 01:57:41;;;;;;;0.00;0.00;;;29.40;33.80;;;;;;5008914;28;20205;-44
2024/01/27 02:00:12;;;;;;;0.00;0.00;;;29.40;33.80;;;;;;5004990;28;20276;-47
2024/01/27 02:02:45;;;;;;;0.00;0.00;;;29.40;33.90;;;;;;5007253;28;20824;-44
2024/01/27 02:05:16;;;;;;;0.00;0.00;;;29.40;33.80;;;;;;5009179;28;20290;-46
2024/01/27 02:07:48;;;;;;;0.00;0.00;;;29.40;33.70;;;;;;5008514;28;20232;-43
2024/01/27 02:10:20;;;;;;;0.00;0.00;;;29.40;33.10;;;;;;5008453;28;20725;-44
2024/01/27 02:12:50;;;;;;;0.00;0.00;;;29.40;32.90;;;;;;5008897;28;20573;-44
2024/01/27 02:15:21;;;;;;;0.00;0.00;;;29.50;32.90;;;;;;5008903;28;20220;-46
2024/01/27 02:17:52;;;;;;;0.00;0.00;;;29.50;32.70;;;;;;5008124;28;20324;-45
2024/01/27 02:20:23;;;;;;;0.00;0.00;;;29.50;32.50;;;;;;5027770;28;20200;-46
2024/01/27 02:22:55;;;;;;;0.00;0.00;;;29.50;32.10;;;;;;5028302;28;20203;-47
2024/01/27 02:25:28;;;;;;;0.00;0.00;;;29.50;31.90;;;;;;5020337;28;20225;-46
2024/01/27 02:27:58;;;;;;;0.00;0.00;;;29.50;31.70;;;;;;5007745;28;20233;-44
2024/01/27 02:30:29;;;;;;;0.00;0.00;;;29.50;31.60;;;;;;5007932;28;20211;-44
2024/01/27 02:33:00;;;;;;;0.00;0.00;;;29.60;31.60;;;;;;5008806;28;20201;-46
2024/01/27 02:35:31;;;;;;;0.00;0.00;;;29.60;32.30;;;;;;4995906;28;20216;-47
2024/01/27 02:38:01;;;;;;;0.00;0.00;;;29.60;31.50;;;;;;5008350;28;20201;-45
2024/01/27 02:40:34;;;;;;;0.00;0.00;;;29.60;31.70;;;;;;5008390;28;20203;-45
2024/01/27 02:43:04;;;;;;;0.00;0.00;;;29.60;31.90;;;;;;5007883;28;20201;-43
2024/01/27 02:45:35;;;;;;;0.00;0.00;;;29.60;31.70;;;;;;5007578;28;20308;-43
2024/01/27 02:48:06;;;;;;;0.00;0.00;;;29.60;31.60;;;;;;5012415;28;20232;-46
2024/01/27 02:50:37;;;;;;;0.00;0.00;;;29.60;31.50;;;;;;5028099;28;20578;-44
2024/01/27 02:53:07;;;;;;;0.00;0.00;;;29.60;31.60;;;;;;5009736;28;20656;-44
2024/01/27 02:55:40;;;;;;;0.00;0.00;;;29.70;31.60;;;;;;5007478;28;20307;-46
2024/01/27 02:58:11;;;;;;;0.00;0.00;;;29.70;31.70;;;;;;5008616;28;20200;-45
2024/01/27 03:00:41;;;;;;;0.00;0.00;;;29.70;31.50;;;;;;5008313;28;20222;-43
2024/01/27 03:03:12;;;;;;;0.00;0.00;;;29.70;31.50;;;;;;5008371;28;20211;-43
2024/01/27 03:05:43;;;;;;;0.00;0.00;;;29.70;31.20;;;;;;5008232;28;20231;-44
2024/01/27 03:08:14;;;;;;;0.00;0.00;;;29.70;31.00;;;;;;5007473;28;20651;-47
2024/01/27 03:10:46;;;;;;;0.00;0.00;;;29.70;30.40;;;;;;5007805;28;20207;-46
2024/01/27 03:13:18;;;;;;;0.00;0.00;;;29.70;30.00;;;;;;5008462;28;20207;-46
2024/01/27 03:15:49;;;;;;;0.00;0.00;;;29.70;29.90;;;;;;5007456;28;20303;-46
2024/01/27 03:18:20;;;;;;;0.00;0.00;;;29.70;29.90;;;;;;5012213;28;20296;-47
2024/01/27 03:20:51;;;;;;;0.00;0.00;;;29.80;29.90;;;;;;5008277;28;20222;-44
2024/01/27 03:23:21;;;;;;;0.00;0.00;;;29.80;29.70;;;;;;5009551;28;20207;-46
2024/01/27 03:25:54;;;;;;;0.00;0.00;;;29.80;29.70;;;;;;5011437;28;20220;-49
2024/01/27 03:28:25;;;;;;;0.00;0.00;;;29.80;29.60;;;;;;5011390;28;20544;-49
2024/01/27 03:30:55;;;;;;;0.00;0.00;;;29.80;29.60;;;;;;5011384;28;20205;-47
2024/01/27 03:33:26;;;;;;;0.00;0.00;;;29.90;29.60;;;;;;5011061;28;20766;-46
2024/01/27 03:35:57;;;;;;;0.00;0.00;;;29.90;29.40;;;;;;5011165;28;20220;-44
2024/01/27 03:38:27;;;;;;;0.00;0.00;;;29.90;29.50;;;;;;5011101;28;20482;-44
2024/01/27 03:41:00;;;;;;;0.00;0.00;;;29.90;29.50;;;;;;5011550;28;20208;-50
2024/01/27 03:43:31;;;;;;;0.00;0.00;;;30.00;29.60;;;;;;5011047;28;20201;-45
2024/01/27 03:46:01;;;;;;;0.00;0.00;;;30.00;29.70;;;;;;5011373;28;20221;-46
2024/01/27 03:48:34;;;;;;;0.00;0.00;;;30.00;29.90;;;;;;5017899;28;20318;-45
2024/01/27 03:51:05;;;;;;;0.00;0.00;;;30.00;29.70;;;;;;5009349;28;20506;-47
2024/01/27 03:53:36;;;;;;;0.00;0.00;;;30.00;29.80;;;;;;5009288;28;20197;-47
2024/01/27 03:56:09;;;;;;;0.00;0.00;;;30.10;29.80;;;;;;5010565;28;20247;-50
2024/01/27 03:58:40;;;;;;;0.00;0.00;;;30.10;29.80;;;;;;5011571;28;20208;-46
2024/01/27 04:01:11;;;;;;;0.00;0.00;;;30.10;29.90;;;;;;5010389;28;20201;-47
2024/01/27 04:03:41;;;;;;;0.00;0.00;;;30.10;29.80;;;;;;5010410;28;20193;-44
2024/01/27 04:06:12;;;;;;;0.00;0.00;;;30.10;29.90;;;;;;5010915;28;20221;-47
2024/01/27 04:08:44;;;;;;;0.00;0.00;;;30.10;30.00;;;;;;5011332;28;20594;-52
2024/01/27 04:11:25;;;;;;;0.00;0.00;;;30.10;30.00;;;;;;5011036;28;20201;-48
2024/01/27 04:13:55;;;;;;;0.00;0.00;;;30.20;29.80;;;;;;5011168;28;20668;-48
2024/01/27 04:16:26;;;;;;;0.00;0.00;;;30.20;29.80;;;;;;5010909;28;20251;-44
2024/01/27 04:18:57;;;;;;;0.00;0.00;;;30.20;29.80;;;;;;5025315;28;20200;-46
2024/01/27 04:21:27;;;;;;;0.00;0.00;;;30.30;29.70;;;;;;5034261;28;20200;-47
2024/01/27 04:23:58;;;;;;;0.00;0.00;;;30.30;29.70;;;;;;5034198;28;20207;-47
2024/01/27 04:26:31;;;;;;;0.00;0.00;;;30.30;29.70;;;;;;5033381;28;20592;-45
2024/01/27 04:29:01;;;;;;;0.00;0.00;;;30.30;29.70;;;;;;5033792;28;20235;-47
2024/01/27 04:31:32;;;;;;;0.00;0.00;;;30.40;29.80;;;;;;5033739;28;20204;-49
2024/01/27 04:34:03;;;;;;;0.00;0.00;;;30.40;29.90;;;;;;5033437;28;20250;-45
2024/01/27 04:36:34;;;;;;;0.00;0.00;;;30.40;29.80;;;;;;5033894;28;20223;-48
2024/01/27 04:39:05;;;;;;;0.00;0.00;;;30.40;29.90;;;;;;5033933;28;20207;-48
2024/01/27 04:41:43;;;;;;;0.00;0.00;;;30.50;30.00;;;;;;5033636;28;20192;-47
2024/01/27 04:44:14;;;;;;;0.00;0.00;;;30.50;30.00;;;;;;5032957;28;20199;-48
2024/01/27 04:46:45;;;;;;;0.00;0.00;;;30.50;30.00;;;;;;5012185;28;20665;-48
2024/01/27 04:49:16;;;;;;;0.00;0.00;;;30.50;29.80;;;;;;5028074;28;20260;-48
2024/01/27 04:51:47;;;;;;;0.00;0.00;;;30.50;29.80;;;;;;5033854;28;20566;-47
2024/01/27 04:54:17;;;;;;;0.00;0.00;;;30.50;29.70;;;;;;5033618;28;20218;-51
2024/01/27 04:56:50;;;;;;;0.00;0.00;;;30.50;29.70;;;;;;5033211;28;20231;-47
2024/01/27 04:59:21;;;;;;;0.00;0.00;;;30.60;29.80;;;;;;5033989;28;20196;-46
2024/01/27 05:01:51;;;;;;;0.00;0.00;;;30.60;29.70;;;;;;5033452;28;20379;-46
2024/01/27 05:04:26;;;;;;;0.00;0.00;;;30.60;29.70;;;;;;5033172;28;20200;-43
2024/01/27 05:06:57;;;;;;;0.00;0.00;;;30.60;29.60;;;;;;5032804;28;20278;-47
2024/01/27 05:09:27;;;;;;;0.00;0.00;;;30.60;29.60;;;;;;5033283;28;20227;-48
2024/01/27 05:12:01;;;;;;;0.00;0.00;;;30.60;29.80;;;;;;5033437;28;20196;-46
2024/01/27 05:14:32;;;;;;;0.00;0.00;;;30.60;29.80;;;;;;5033396;28;20200;-51
2024/01/27 05:17:03;;;;;;;0.00;0.00;;;30.60;29.60;;;;;;5033279;28;20220;-46
2024/01/27 05:19:33;;;;;;;0.00;0.00;;;30.60;29.60;;;;;;5021930;28;20220;-47
2024/01/27 05:22:04;;;;;;;0.00;0.00;;;30.70;29.50;;;;;;5013304;28;20203;-45
2024/01/27 05:24:35;;;;;;;0.00;0.00;;;30.70;29.50;;;;;;5013208;28;20197;-48
2024/01/27 05:27:08;;;;;;;0.00;0.00;;;30.70;29.50;;;;;;5013115;28;20220;-47
2024/01/27 05:29:41;;;;;;;0.00;0.00;;;30.70;29.40;;;;;;5013133;28;20691;-46
2024/01/27 05:32:11;;;;;;;0.00;0.00;;;30.80;29.50;;;;;;5012902;28;20222;-50
2024/01/27 05:34:42;;;;;;;0.00;0.00;;;30.80;29.60;;;;;;5013059;28;20208;-47
2024/01/27 05:37:12;;;;;;;0.00;0.00;;;30.80;29.80;;;;;;5013147;28;20204;-51
2024/01/27 05:39:43;;;;;;;0.00;0.00;;;30.80;29.80;;;;;;5013116;28;20193;-51
2024/01/27 05:42:16;;;;;;;0.00;0.00;;;30.80;29.70;;;;;;5012835;28;20615;-50
2024/01/27 05:44:47;;;;;;;0.00;0.00;;;30.80;29.70;;;;;;5012141;28;20584;-48
2024/01/27 05:47:17;;;;;;;0.00;0.00;;;30.80;29.60;;;;;;5012484;28;20197;-44
2024/01/27 05:49:48;;;;;;;0.00;0.00;;;30.80;29.50;;;;;;5028122;28;20236;-47
2024/01/27 05:52:19;;;;;;;0.00;0.00;;;30.80;29.60;;;;;;5012926;28;20197;-49
2024/01/27 05:54:49;;;;;;;0.00;0.00;;;30.80;29.50;;;;;;5011426;28;20195;-46
2024/01/27 05:57:22;;;;;;;0.00;0.00;;;30.90;29.70;;;;;;5011694;28;20197;-47
2024/01/27 05:59:52;;;;;;;0.00;0.00;;;30.90;29.70;;;;;;5012444;28;20207;-51
2024/01/27 06:02:23;;;;;;;0.00;0.00;;;30.90;29.80;;;;;;5011934;28;20204;-48
2024/01/27 06:04:54;;;;;;;0.00;0.00;;;30.90;29.80;;;;;;5011779;28;20188;-46
2024/01/27 06:07:25;;;;;;;0.00;0.00;;;30.90;29.70;;;;;;5012115;28;20200;-48
2024/01/27 06:09:55;;;;;;;0.00;0.00;;;30.90;29.70;;;;;;5012549;28;20227;-46
2024/01/27 06:12:28;;;;;;;0.00;0.00;;;30.90;29.70;;;;;;5012192;28;20201;-50
2024/01/27 06:14:58;;;;;;;0.00;0.00;;;30.90;29.70;;;;;;5012244;28;20566;-50
2024/01/27 06:17:29;;;;;;;0.00;0.00;;;30.90;29.80;;;;;;5011933;28;20667;-45
2024/01/27 06:20:00;;;;;;;0.00;0.00;;;30.90;29.80;;;;;;4992479;28;20650;-45
2024/01/27 06:22:31;;;;;;;0.00;0.00;;;30.90;29.80;;;;;;4992467;28;20732;-48
2024/01/27 06:25:05;;;;;;;0.00;0.00;;;30.90;29.70;;;;;;4992094;28;20200;-47
2024/01/27 06:27:37;;;;;;;0.00;0.00;;;30.90;29.70;;;;;;4991766;28;20560;-47
2024/01/27 06:30:09;;;;;;;0.00;0.00;;;30.90;29.70;;;;;;4992317;28;20221;-51
2024/01/27 06:32:40;;;;;;;0.00;0.00;;;30.90;29.70;;;;;;4992225;28;20197;-48
2024/01/27 06:35:11;;;;;;;0.00;0.00;;;30.90;29.90;;;;;;4993537;28;20221;-49
2024/01/27 06:37:42;;;;;;;0.00;0.00;;;30.90;29.90;;;;;;5009923;28;20368;-47
2024/01/27 06:40:13;;;;;;;0.00;0.00;;;30.90;29.90;;;;;;5011867;28;20193;-49
2024/01/27 06:42:45;;;;;;;0.00;0.00;;;30.90;29.90;;;;;;5011542;28;20648;-51
2024/01/27 06:45:16;;;;;;;0.00;0.00;;;30.90;29.80;;;;;;5012063;28;20696;-47
2024/01/27 06:47:47;;;;;;;0.00;0.00;;;30.90;29.90;;;;;;5013377;28;20200;-45
2024/01/27 06:50:18;;;;;;;0.00;0.00;;;30.90;29.70;;;;;;5031353;28;20634;-49
2024/01/27 06:52:48;;;;;;;0.00;0.00;;;30.90;29.50;;;;;;5031841;28;20196;-48
2024/01/27 06:55:19;;;;;;;0.00;0.00;;;30.90;29.50;;;;;;5031293;28;20242;-51
2024/01/27 06:57:51;;;;;;;0.00;0.00;;;30.90;29.60;;;;;;5031373;28;20195;-52
2024/01/27 07:00:23;;;;;;;0.00;0.00;;;30.90;29.40;;;;;;5031717;28;20204;-45
2024/01/27 07:02:54;;;;;;;0.00;0.00;;;30.90;29.40;;;;;;5030684;28;20204;-45
2024/01/27 07:05:24;;;;;;;0.00;0.00;;;30.90;29.50;;;;;;5031107;28;20223;-48
2024/01/27 07:07:55;;;;;;;0.00;0.00;;;31.00;29.50;;;;;;5031355;28;20203;-46
2024/01/27 07:10:25;;;;;;;0.00;0.00;;;31.00;29.40;;;;;;5021590;28;20224;-44
2024/01/27 07:12:58;;;;;;;0.00;0.00;;;30.90;29.40;;;;;;5011316;28;20255;-48
2024/01/27 07:15:29;;;;;;;0.00;0.00;;;31.00;29.50;;;;;;5011547;28;20212;-51
2024/01/27 07:18:04;;;;;;;0.00;0.00;;;31.00;29.30;;;;;;5014706;28;20561;-50
2024/01/27 07:20:35;;;;;;;0.00;0.00;;;31.00;29.20;;;;;;5030524;28;20199;-48
2024/01/27 07:23:06;;;;;;;0.00;0.00;;;30.90;28.90;;;;;;5030426;28;20196;-50
2024/01/27 07:25:37;;;;;;;0.00;0.00;;;30.90;28.80;;;;;;5031251;28;20219;-46
2024/01/27 07:28:09;;;;;;;0.00;0.00;;;30.90;28.70;;;;;;5031097;28;20203;-47
2024/01/27 07:30:40;;;;;;;0.00;0.00;;;30.80;28.60;;;;;;5031219;28;20223;-45
2024/01/27 07:33:11;;;;;;;0.00;0.00;;;30.80;28.60;;;;;;5030410;28;20625;-47
2024/01/27 07:35:42;;;;;;;0.00;0.00;;;30.80;28.80;;;;;;5030244;28;20235;-50
2024/01/27 07:38:12;;;;;;;0.00;0.00;;;30.80;28.80;;;;;;5030335;28;20203;-48
2024/01/27 07:40:43;;;;;;;0.00;0.00;;;30.80;29.00;;;;;;5030436;28;20206;-50
2024/01/27 07:43:16;;;;;;;0.00;0.00;;;30.70;29.00;;;;;;5030734;28;20195;-47
2024/01/27 07:45:47;;;;;;;0.00;0.00;;;30.80;29.20;;;;;;5031156;28;20274;-46
2024/01/27 07:48:18;;;;;;;0.00;0.00;;;30.70;29.10;;;;;;5027610;28;20192;-50
2024/01/27 07:50:49;;;;;;;0.00;0.00;;;30.80;29.20;;;;;;5030948;28;20227;-47
2024/01/27 07:53:20;;;;;;;0.00;0.00;;;30.70;29.20;;;;;;5030694;28;20206;-48
2024/01/27 07:55:50;;;;;;;0.00;0.00;;;30.70;29.20;;;;;;5031256;28;20228;-48
2024/01/27 07:58:23;;;;;;;0.00;0.00;;;30.70;29.30;;;;;;5012808;28;20432;-47
2024/01/27 08:00:54;;;;;;;0.00;0.00;;;30.70;29.20;;;;;;5010387;28;20208;-51
2024/01/27 08:03:24;;;;;;;0.00;0.00;;;30.60;29.30;;;;;;5010345;28;20189;-50
2024/01/27 08:05:55;;;;;;;0.00;0.00;;;30.60;29.30;;;;;;5003787;28;20215;-46
2024/01/27 08:08:26;;;;;;;0.00;0.00;;;30.60;29.30;;;;;;5011896;28;20204;-51
2024/01/27 08:10:57;;;;;;;0.00;0.00;;;30.60;29.40;;;;;;5014409;28;20220;-45
2024/01/27 08:13:29;;;;;;;0.00;0.00;;;30.60;29.40;;;;;;5009057;28;20200;-49
2024/01/27 08:16:00;;;;;;;0.00;0.00;;;30.50;29.40;;;;;;5010397;28;20225;-49
2024/01/27 08:18:31;;;;;;;0.00;0.00;;;30.50;29.40;;;;;;5017884;28;20547;-46
2024/01/27 08:21:01;;;;;;;0.00;0.00;;;30.50;29.40;;;;;;5031082;28;20257;-46
2024/01/27 08:23:32;;;;;;;0.00;0.00;;;30.40;29.40;;;;;;5030375;28;20206;-50
2024/01/27 08:26:03;;;;;;;0.00;0.00;;;30.50;29.60;;;;;;5020517;28;20247;-51
2024/01/27 08:28:36;;;;;;;0.00;0.00;;;30.40;29.60;;;;;;5010511;28;20227;-46
2024/01/27 08:31:07;;;;;;;0.00;0.00;;;30.40;29.70;;;;;;5010196;28;20232;-49
2024/01/27 08:33:37;;;;;;;0.00;0.00;;;30.30;29.70;;;;;;5010042;28;20196;-51
2024/01/27 08:36:08;;;;;;;0.00;0.00;;;30.30;29.70;;;;;;5010308;28;20235;-51
2024/01/27 08:38:39;;;;;;;0.00;0.00;;;30.30;29.80;;;;;;5010864;28;20197;-51
2024/01/27 08:41:10;;;;;;;0.00;0.00;;;30.30;29.90;;;;;;5010215;28;20206;-51
2024/01/27 08:43:42;;;;;;;0.00;0.00;;;30.20;29.90;;;;;;5010458;28;20195;-44
2024/01/27 08:46:15;;;;;;;0.00;0.00;;;30.20;30.00;;;;;;5009150;28;20220;-43
2024/01/27 08:48:46;;;;;;;0.00;0.00;;;30.20;30.00;;;;;;5019430;28;20231;-46
2024/01/27 08:51:16;;;;;;;0.00;0.00;;;30.10;30.00;;;;;;5024550;28;20229;-44
2024/01/27 08:53:48;;;;;;;0.00;0.00;;;30.10;30.00;;;;;;5009548;28;20570;-54
2024/01/27 08:56:19;;;;;;;0.00;0.00;;;30.10;30.00;;;;;;5009496;28;20231;-44
2024/01/27 08:58:52;;;;;;;0.00;0.00;;;30.10;30.00;;;;;;5009367;28;20204;-49
2024/01/27 09:01:23;;;;;;;0.00;0.00;;;30.10;30.10;;;;;;5009315;28;20722;-49
2024/01/27 09:03:54;;;;;;;0.00;0.00;;;30.00;30.00;;;;;;5009237;28;20747;-49
2024/01/27 09:06:24;;;;;;;0.00;0.00;;;30.00;30.10;;;;;;5010264;28;20215;-49
2024/01/27 09:08:55;;;;;;;0.00;0.00;;;30.00;30.10;;;;;;5009798;28;20203;-52
2024/01/27 09:11:27;;;;;;;0.00;0.00;;;29.90;30.70;;;;;;5009456;28;20312;-51
2024/01/27 09:13:59;;;;;;;0.00;0.00;;;29.90;30.10;;;;;;5009731;28;20205;-51
2024/01/27 09:16:30;;;;;;;0.00;0.00;;;29.90;30.10;;;;;;5008884;28;20224;-50
2024/01/27 09:19:01;;;;;;;0.00;0.00;;;29.80;30.00;;;;;;5017662;28;20211;-52
2024/01/27 09:21:32;;;;;;;0.00;0.00;;;29.80;30.00;;;;;;4988841;28;20208;-53
2024/01/27 09:24:03;;;;;;;0.00;0.00;;;29.70;30.10;;;;;;4990565;28;20209;-52
2024/01/27 09:26:34;;;;;;;0.00;0.00;;;29.70;30.00;;;;;;4989619;28;20257;-48
2024/01/27 09:29:07;;;;;;;0.00;0.00;;;29.70;30.00;;;;;;4990278;28;20210;-53
2024/01/27 09:31:37;;;;;;;0.00;0.00;;;29.60;30.00;;;;;;4993523;28;20208;-47
2024/01/27 09:34:08;;;;;;;0.00;0.00;;;29.60;30.00;;;;;;5009229;28;20555;-46
2024/01/27 09:36:39;;;;;;;0.00;0.00;;;29.60;30.10;;;;;;5008912;28;20681;-48
2024/01/27 09:39:10;;;;;;;0.00;0.00;;;29.50;30.10;;;;;;5009472;28;20669;-49
2024/01/27 09:41:41;;;;;;;0.00;0.00;;;29.50;30.20;;;;;;5008834;28;20200;-49
2024/01/27 09:44:17;;;;;;;0.00;0.00;;;29.50;30.30;;;;;;5009169;28;20197;-50
2024/01/27 09:46:49;;;;;;;0.00;0.00;;;29.40;30.30;;;;;;5007920;28;20235;-47
2024/01/27 09:49:20;;;;;;;0.00;0.00;;;29.40;30.40;;;;;;5023875;28;20286;-47
2024/01/27 09:51:51;;;;;;;0.00;0.00;;;29.40;30.40;;;;;;5025843;28;20561;-47
2024/01/27 09:54:22;;;;;;;0.00;0.00;;;29.40;30.50;;;;;;5028642;28;20200;-47
2024/01/27 09:56:54;;;;;;;0.00;0.00;;;29.40;30.60;;;;;;5018494;28;20320;-50
2024/01/27 09:59:27;;;;;;;0.00;0.00;;;29.30;30.60;;;;;;5008102;28;20209;-52
2024/01/27 10:01:59;;;;;;;0.00;0.00;;;29.30;30.60;;;;;;5009109;28;20207;-50
2024/01/27 10:04:31;;;;;;;0.00;0.00;;;29.20;30.50;;;;;;5009415;28;20227;-49
2024/01/27 10:07:02;;;;;;;0.00;0.00;;;29.20;30.60;;;;;;5008127;28;20255;-50
2024/01/27 10:09:33;;;;;;;0.00;0.00;;;29.20;30.60;;;;;;5009289;28;20213;-51
2024/01/27 10:12:05;;;;;;;0.00;0.00;;;29.20;30.60;;;;;;5007688;28;20201;-54
2024/01/27 10:14:48;;;;;;;0.00;0.00;;;29.20;30.60;;;;;;5008416;28;20607;-47
2024/01/27 10:17:28;;;;;;;0.00;0.00;;;29.10;30.70;;;;;;5008222;28;20559;-48
2024/01/27 10:20:05;;;;;;;0.00;0.00;;;29.10;30.60;;;;;;4988436;28;20205;-51
2024/01/27 10:22:41;;;;;;;0.00;0.00;;;29.00;30.60;;;;;;4988426;28;20201;-50
2024/01/27 10:25:12;;;;;;;0.00;0.00;;;29.00;30.70;;;;;;4995420;28;20719;-54
2024/01/27 10:27:45;;;;;;;0.00;0.00;;;28.90;30.60;;;;;;5007243;28;20201;-49
2024/01/27 10:30:21;;;;;;;0.00;0.00;;;28.90;30.70;;;;;;5009026;28;20588;-50
2024/01/27 10:33:01;;;;;;;0.00;0.00;;;28.90;30.70;;;;;;5008212;28;20251;-49
2024/01/27 10:35:32;;;;;;;0.00;0.00;;;28.80;30.70;;;;;;5007826;28;20608;-53
2024/01/27 10:38:02;;;;;;;0.00;0.00;;;28.80;30.80;;;;;;5008496;28;21003;-52
2024/01/27 10:40:33;;;;;;;0.00;0.00;;;28.80;30.80;;;;;;5007933;28;20254;-42
2024/01/27 10:43:05;;;;;;;0.00;0.00;;;28.80;30.80;;;;;;5008766;28;20606;-45
2024/01/27 10:45:42;;;;;;;0.00;0.00;;;28.70;30.90;;;;;;5007982;28;20577;-47
2024/01/27 10:48:13;;;;;;;0.00;0.00;;;28.70;30.90;;;;;;5013578;28;20203;-46
2024/01/27 10:50:44;;;;;;;0.00;0.00;;;28.70;31.00;;;;;;5027515;28;20224;-52
2024/01/27 10:53:26;;;;;;;0.00;0.00;;;28.60;31.00;;;;;;5014219;28;20200;-42
2024/01/27 10:55:59;;;;;;;0.00;0.00;;;28.60;31.00;;;;;;5007635;28;20320;-51
2024/01/27 10:58:31;;;;;;;0.00;0.00;;;28.60;31.10;;;;;;5008288;28;20200;-44
2024/01/27 11:01:05;;;;;;;0.00;0.00;;;28.50;31.10;;;;;;5007846;28;20216;-50
2024/01/27 11:03:38;;;;;;;0.00;0.00;;;28.60;31.20;;;;;;5008480;28;20209;-48
2024/01/27 11:06:09;;;;;;;0.00;0.00;;;28.50;31.20;;;;;;5008734;28;20221;-55
2024/01/27 11:08:41;;;;;;;0.00;0.00;;;28.50;31.20;;;;;;5007784;28;20208;-51
2024/01/27 11:11:12;;;;;;;0.00;0.00;;;28.40;31.20;;;;;;5008493;28;20232;-54
2024/01/27 11:13:45;;;;;;;0.00;0.00;;;28.40;31.20;;;;;;5007834;28;20200;-51
2024/01/27 11:16:21;;;;;;;0.00;0.00;;;28.40;31.90;;;;;;5007473;28;20216;-51
2024/01/27 11:18:53;;;;;;;0.00;0.00;;;28.30;31.20;;;;;;5011226;28;20196;-52
2024/01/27 11:21:23;;;;;;;0.00;0.00;;;28.30;31.20;;;;;;5007916;28;20634;-51
2024/01/27 11:23:54;;;;;;;0.00;0.00;;;28.30;31.30;;;;;;5007355;28;20200;-53
2024/01/27 11:26:25;;;;;;;0.00;0.00;;;28.20;31.20;;;;;;5008354;28;20213;-53
2024/01/27 11:28:57;;;;;;;0.00;0.00;;;28.20;31.30;;;;;;5007376;28;20196;-52
2024/01/27 11:31:31;;;;;;;0.00;0.00;;;28.20;31.30;;;;;;5006750;28;20232;-53
2024/01/27 11:34:02;;;;;;;0.00;0.00;;;28.10;31.30;;;;;;5007926;28;20201;-48
2024/01/27 11:36:37;;;;;;;0.00;0.00;;;28.10;31.40;;;;;;5007717;28;20304;-49
2024/01/27 11:39:07;;;;;;;0.00;0.00;;;28.10;31.40;;;;;;5007815;28;20581;-52
2024/01/27 11:41:40;;;;;;;0.00;0.00;;;28.10;31.40;;;;;;5010700;28;20247;-50
2024/01/27 11:44:16;;;;;;;0.00;0.00;;;28.00;31.40;;;;;;5012840;28;20250;-55
2024/01/27 11:46:48;;;;;;;0.00;0.00;;;28.00;31.40;;;;;;5015136;28;20221;-54
2024/01/27 11:49:20;;;;;;;0.00;0.00;;;28.00;31.50;;;;;;5029786;28;20207;-55
2024/01/27 11:51:50;;;;;;;0.00;0.00;;;28.00;31.50;;;;;;5034906;28;20230;-55
2024/01/27 11:54:21;;;;;;;0.00;0.00;;;27.90;32.10;;;;;;5034941;28;20204;-55
2024/01/27 11:56:52;;;;;;;0.00;0.00;;;27.90;31.50;;;;;;5034380;28;20224;-55
2024/01/27 11:59:24;;;;;;;0.00;0.00;;;27.90;31.50;;;;;;5029083;28;20196;-54
2024/01/27 12:01:56;;;;;;;0.00;0.00;;;27.90;31.60;;;;;;5014566;28;20585;-54
2024/01/27 12:04:28;;;;;;;0.00;0.00;;;27.90;31.70;;;;;;5014415;28;20204;-50
2024/01/27 12:06:58;;;;;;;0.00;0.00;;;27.80;31.60;;;;;;5011590;28;20209;-50
2024/01/27 12:09:29;;;;;;;0.00;0.00;;;27.80;31.70;;;;;;5014425;28;20196;-50
2024/01/27 12:12:00;;;;;;;0.00;0.00;;;27.80;31.70;;;;;;5012044;28;20209;-52
2024/01/27 12:14:42;;;;;;;0.00;0.00;;;27.70;31.70;;;;;;5014382;28;20193;-50
2024/01/27 12:17:15;;;;;;;0.00;0.00;;;27.70;31.80;;;;;;5012951;28;20211;-53
2024/01/27 12:19:51;;;;;;;0.00;0.00;;;27.70;31.80;;;;;;5013777;28;20192;-51
2024/01/27 12:22:26;;;;;;;0.00;0.00;;;27.70;31.90;;;;;;5011598;28;20199;-50
2024/01/27 12:24:57;;;;;;;0.00;0.00;;;27.60;31.90;;;;;;5013838;28;20684;-51
2024/01/27 12:27:29;;;;;;;0.00;0.00;;;27.60;31.90;;;;;;5013938;28;20197;-47
2024/01/27 12:30:00;;;;;;;0.00;0.00;;;27.60;32.00;;;;;;5011636;28;20193;-46
2024/01/27 12:32:33;;;;;;;0.00;0.00;;;27.60;32.00;;;;;;5013777;28;20588;-52
2024/01/27 12:35:08;;;;;;;0.00;0.00;;;27.50;32.00;;;;;;5011729;28;20192;-49
2024/01/27 12:37:39;;;;;;;0.00;0.00;;;27.50;32.00;;;;;;5011823;28;20193;-52
2024/01/27 12:40:22;;;;;;;0.00;0.00;;;27.50;32.00;;;;;;5014166;28;20196;-50
2024/01/27 12:42:53;;;;;;;0.00;0.00;;;27.50;32.10;;;;;;5013651;28;20219;-55
2024/01/27 12:45:24;;;;;;;0.00;0.00;;;27.40;32.00;;;;;;5014108;28;20220;-51
2024/01/27 12:47:56;;;;;;;0.00;0.00;;;27.50;32.20;;;;;;5017032;28;20212;-53
2024/01/27 12:50:27;;;;;;;0.00;0.00;;;27.40;32.10;;;;;;5033583;28;20192;-52
2024/01/27 12:52:57;;;;;;;0.00;0.00;;;27.40;32.20;;;;;;5033573;28;20196;-47
2024/01/27 12:55:28;;;;;;;0.00;0.00;;;27.40;32.20;;;;;;5032652;28;20235;-55
2024/01/27 12:57:59;;;;;;;0.00;0.00;;;27.30;32.10;;;;;;5032738;28;20199;-51
2024/01/27 13:00:30;;;;;;;0.00;0.00;;;27.30;32.20;;;;;;5034015;28;20250;-49
2024/01/27 13:03:02;;;;;;;0.00;0.00;;;27.30;32.20;;;;;;5033466;28;20219;-52
2024/01/27 13:05:34;;;;;;;0.00;0.00;;;27.30;32.30;;;;;;5034055;28;20217;-45
2024/01/27 13:08:04;;;;;;;0.00;0.00;;;27.30;32.30;;;;;;5033516;28;20192;-49
2024/01/27 13:10:35;;;;;;;0.00;0.00;;;27.30;32.30;;;;;;5033463;28;20196;-50